Osceola, MO (64776)

8:42 AM CST on December 10, 2016 (GMT -0600)
Gordon's Orchard | | Change Station

Elev 925 ft 37.98 °N, 93.65 °W | Updated 27 seconds ago

Overcast
Overcast
30.5 °F
Feels Like 26 °F
N
4.0
Wind Variable Wind from SE

Today
High -- | Low -- °F
--% Chance of Precip.
Yesterday
High -- | Low -- °F
Precip. -- in
Pressure 30.45 in
Visibility 10.0 miles
Clouds Overcast 4700 ft
Windchill 26 °F
Dew Point 20 °F
Humidity 66%
Rainfall 0.00 in
Snow Depth Not available.
7:20 AM 4:55 PM
Waxing Gibbous, 84% visible
METAR KGLY 101435Z AUTO 13006KT 10SM OVC047 00/M07 A3045 RMK AO2
Pressure 30.45 in
Visibility 10.0 miles
Clouds Overcast 4700 ft
Windchill 26 °F
Dew Point 20 °F
Humidity 66%
Rainfall 0.00 in
Snow Depth Not available.
7:20 AM 4:55 PM
Waxing Gibbous, 84% visible
METAR KGLY 101435Z AUTO 13006KT 10SM OVC047 00/M07 A3045 RMK AO2

10-Day Weather Forecast

Almanac

Astronomy

Dec. 10, 2016 Rise Set
Actual Time
Civil Twilight
Nautical Twilight
Astronomical Twilight
Moon
Length of Visible Light
Length of Day
Tomorrow will be .
, % of the Moon is Illuminated

Today's Extremes

State Highs State Lows

Community

WunderPhotos

Upload Photos

1,956,549 photos uploaded!

WunderBlog® & News

Nearby

Air Quality

  Air Quality AQ Index Pollutant
Not available.

Snow Depth

Station Depth Elevation

Earthquake Activity

City Distance Mag. Time & Date
Minimum magnitude displayed is 2.5.

Coastal Water Temperatures

Place Temperature

Stations

Nearby Weather Stations

Station Location Temp. Windchill Dew Point Humidity Wind Precip. Elev Updated Type
                   

Watches & Warnings

There are currently no watches in effect.